createdAt,value
2018-12-09T00:00:44.487Z,82.90
2018-12-09T00:03:13.525Z,82.05
2018-12-09T00:05:42.538Z,81.73
2018-12-09T00:08:11.591Z,80.46
2018-12-09T00:10:43.135Z,78.51
2018-12-09T00:13:12.435Z,78.31
2018-12-09T00:15:42.786Z,77.04
2018-12-09T00:18:13.572Z,76.24
2018-12-09T00:20:42.869Z,75.20
2018-12-09T00:23:12.223Z,75.09
2018-12-09T00:25:42.770Z,75.15
2018-12-09T00:28:12.607Z,74.50
2018-12-09T00:30:42.779Z,74.43
2018-12-09T00:33:13.270Z,73.71
2018-12-09T00:35:42.282Z,73.18
2018-12-09T00:38:10.774Z,73.86
2018-12-09T00:40:40.912Z,72.87
2018-12-09T00:43:15.339Z,72.03
2018-12-09T00:45:45.159Z,72.05
2018-12-09T00:48:14.313Z,72.26
2018-12-09T00:50:44.044Z,70.50
2018-12-09T00:53:14.309Z,71.16
2018-12-09T00:55:45.317Z,71.04
2018-12-09T00:58:17.539Z,69.94
2018-12-09T01:00:47.681Z,70.78
2018-12-09T01:03:19.080Z,70.49
2018-12-09T01:05:48.195Z,70.55
2018-12-09T01:08:18.005Z,70.65
2018-12-09T01:10:48.217Z,69.95
2018-12-09T01:13:18.118Z,70.54
2018-12-09T01:15:48.227Z,71.30
2018-12-09T01:18:18.475Z,70.72
2018-12-09T01:20:49.050Z,70.80
2018-12-09T01:23:18.413Z,70.38
2018-12-09T01:25:47.845Z,70.31
2018-12-09T01:28:17.789Z,69.60
2018-12-09T01:30:46.483Z,69.42
2018-12-09T01:33:16.357Z,69.42
2018-12-09T01:35:47.514Z,68.88
2018-12-09T01:38:17.223Z,68.83
2018-12-09T01:40:52.476Z,69.07
2018-12-09T01:43:22.114Z,68.40
2018-12-09T01:45:51.071Z,67.39
2018-12-09T01:48:22.451Z,68.21
2018-12-09T01:50:51.794Z,67.08
2018-12-09T01:54:08.791Z,67.25
2018-12-09T01:56:38.198Z,68.02
2018-12-09T01:59:06.818Z,68.01
2018-12-09T02:01:36.110Z,69.36
2018-12-09T02:04:05.396Z,69.60
2018-12-09T02:06:35.617Z,70.66
2018-12-09T02:09:12.145Z,72.14
2018-12-09T02:11:41.447Z,72.73
2018-12-09T02:14:10.887Z,74.05
2018-12-09T02:16:41.952Z,76.29
2018-12-09T02:19:41.250Z,78.02
2018-12-09T02:22:11.047Z,78.80
2018-12-09T02:27:58.080Z,79.64
2018-12-09T02:30:28.444Z,81.00
2018-12-09T02:32:59.109Z,81.99
2018-12-09T02:35:34.432Z,80.52
2018-12-09T02:38:02.936Z,81.42
2018-12-09T02:40:32.261Z,80.70
2018-12-09T02:43:02.334Z,81.52
2018-12-09T02:45:33.084Z,80.51
2018-12-09T02:48:03.091Z,80.10
2018-12-09T02:50:33.028Z,80.56
2018-12-09T02:53:03.048Z,80.97
2018-12-09T02:55:32.723Z,82.96
2018-12-09T02:58:03.809Z,83.28
2018-12-09T03:00:32.814Z,83.06
2018-12-09T03:03:01.544Z,80.08
2018-12-09T03:05:30.546Z,81.71
2018-12-09T03:07:59.602Z,81.77
2018-12-09T03:10:29.593Z,81.94
2018-12-09T03:12:58.131Z,81.76
2018-12-09T03:15:26.661Z,80.49
2018-12-09T03:17:59.129Z,78.07
2018-12-09T03:20:28.829Z,76.71
2018-12-09T03:22:58.382Z,77.31
2018-12-09T03:25:27.716Z,76.96
2018-12-09T03:27:58.929Z,75.88
2018-12-09T03:30:28.996Z,75.37
2018-12-09T03:32:57.997Z,75.21
2018-12-09T03:35:29.699Z,75.54
2018-12-09T03:37:59.255Z,75.57
2018-12-09T03:40:29.881Z,75.92
2018-12-09T03:43:01.270Z,76.68
2018-12-09T03:45:31.390Z,76.40
2018-12-09T03:48:03.119Z,77.46
2018-12-09T03:50:32.620Z,76.90
2018-12-09T03:53:01.642Z,76.88
2018-12-09T03:55:31.069Z,77.01
2018-12-09T03:58:01.699Z,76.81
2018-12-09T04:00:32.054Z,76.61
2018-12-09T04:03:01.960Z,77.11
2018-12-09T04:05:33.046Z,77.44
2018-12-09T04:08:02.147Z,76.36
2018-12-09T04:10:31.521Z,77.10
2018-12-09T04:13:01.208Z,75.29
2018-12-09T04:15:35.097Z,76.58
2018-12-09T04:18:04.748Z,77.85
2018-12-09T04:20:34.787Z,79.12
2018-12-09T04:23:04.479Z,78.27
2018-12-09T04:25:34.603Z,79.19
2018-12-09T04:28:11.410Z,78.65
2018-12-09T04:30:41.979Z,78.80
2018-12-09T04:33:10.696Z,78.97
2018-12-09T04:35:40.161Z,77.93
2018-12-09T04:38:09.529Z,78.75
2018-12-09T04:40:38.938Z,78.36
2018-12-09T04:43:10.147Z,77.80
2018-12-09T04:45:39.735Z,77.46
2018-12-09T04:48:12.504Z,77.70
2018-12-09T04:50:42.079Z,77.54
2018-12-09T04:53:11.265Z,77.92
2018-12-09T04:55:40.035Z,78.73
2018-12-09T04:58:10.126Z,79.55
2018-12-09T05:00:52.900Z,79.90
2018-12-09T05:03:22.229Z,79.90
2018-12-09T05:05:51.922Z,80.79
2018-12-09T05:08:21.626Z,80.45
2018-12-09T05:10:50.634Z,79.00
2018-12-09T05:13:20.467Z,79.06
2018-12-09T05:15:50.998Z,77.14
2018-12-09T05:18:19.858Z,77.01
2018-12-09T05:20:49.555Z,76.51
2018-12-09T05:23:19.838Z,75.37
2018-12-09T05:25:50.299Z,74.91
2018-12-09T05:28:19.856Z,75.46
2018-12-09T05:30:49.866Z,74.80
2018-12-09T05:33:18.962Z,74.62
2018-12-09T05:35:48.302Z,74.87
2018-12-09T05:38:19.217Z,75.27
2018-12-09T05:40:48.714Z,74.72
2018-12-09T05:43:18.828Z,75.32
2018-12-09T05:45:48.426Z,75.68
2018-12-09T05:48:17.866Z,75.84
2018-12-09T05:50:46.379Z,75.18
2018-12-09T05:53:16.092Z,75.92
2018-12-09T05:55:46.670Z,75.82
2018-12-09T05:58:18.186Z,75.50
2018-12-09T06:00:48.711Z,75.39
2018-12-09T06:03:17.758Z,74.99
2018-12-09T06:05:47.311Z,74.34
2018-12-09T06:08:17.214Z,74.92
2018-12-09T06:10:46.848Z,74.72
2018-12-09T06:13:16.398Z,74.29
2018-12-09T06:15:46.287Z,75.32
2018-12-09T06:18:15.870Z,75.68
2018-12-09T06:20:44.420Z,75.74
2018-12-09T06:23:14.690Z,75.74
2018-12-09T06:25:43.359Z,75.75
2018-12-09T06:28:13.032Z,75.80
2018-12-09T06:30:41.935Z,76.20
2018-12-09T06:33:11.636Z,76.48
2018-12-09T06:35:41.562Z,76.11
2018-12-09T06:38:10.047Z,75.10
2018-12-09T06:40:39.145Z,75.34
2018-12-09T06:43:09.242Z,74.61
2018-12-09T06:45:40.147Z,75.20
2018-12-09T06:48:08.846Z,74.02
2018-12-09T06:50:39.877Z,74.21
2018-12-09T06:53:16.818Z,72.13
2018-12-09T06:55:45.546Z,72.93
2018-12-09T06:58:14.115Z,72.15
2018-12-09T07:00:48.130Z,73.50
2018-12-09T07:03:16.750Z,73.20
2018-12-09T07:05:46.204Z,73.28
2018-12-09T07:08:18.051Z,73.55
2018-12-09T07:10:49.350Z,74.18
2018-12-09T07:13:18.665Z,73.34
2018-12-09T07:15:48.676Z,73.44
2018-12-09T07:18:18.295Z,72.80
2018-12-09T07:20:46.814Z,72.52
2018-12-09T07:23:16.682Z,71.92
2018-12-09T07:25:46.715Z,72.01
2018-12-09T07:28:17.897Z,71.47
2018-12-09T07:30:48.308Z,72.05
2018-12-09T07:33:18.450Z,72.10
2018-12-09T07:35:47.748Z,72.47
2018-12-09T07:38:18.981Z,72.73
2018-12-09T07:40:49.060Z,73.03
2018-12-09T07:43:20.157Z,73.25
2018-12-09T07:45:51.434Z,72.68
2018-12-09T07:48:21.351Z,73.30
2018-12-09T07:50:50.884Z,72.10
2018-12-09T07:53:19.972Z,72.69
2018-12-09T07:55:48.470Z,72.73
2018-12-09T07:58:19.011Z,72.47
2018-12-09T08:00:47.594Z,73.10
2018-12-09T08:03:18.739Z,73.50
2018-12-09T08:05:49.215Z,73.06
2018-12-09T08:08:18.195Z,73.98
2018-12-09T08:10:47.477Z,73.98
2018-12-09T08:13:17.033Z,72.72
2018-12-09T08:15:46.138Z,72.31
2018-12-09T08:18:16.037Z,73.45
2018-12-09T08:20:45.794Z,72.71
2018-12-09T08:23:15.339Z,72.28
2018-12-09T08:25:44.330Z,71.14
2018-12-09T08:28:15.312Z,70.86
2018-12-09T08:30:46.439Z,71.06
2018-12-09T08:33:17.367Z,71.09
2018-12-09T08:35:45.940Z,71.32
2018-12-09T08:38:16.245Z,70.58
2018-12-09T08:40:46.076Z,71.15
2018-12-09T08:43:16.493Z,72.28
2018-12-09T08:45:45.805Z,71.60
2018-12-09T08:48:15.923Z,72.37
2018-12-09T08:50:45.319Z,72.50
2018-12-09T08:53:14.393Z,72.12
2018-12-09T08:55:43.095Z,71.94
2018-12-09T08:58:12.809Z,71.02
2018-12-09T09:00:42.160Z,71.83
2018-12-09T09:03:11.995Z,70.82
2018-12-09T09:05:40.692Z,71.62
2018-12-09T09:08:12.294Z,71.59
2018-12-09T09:10:40.824Z,72.13
2018-12-09T09:13:09.881Z,71.63
2018-12-09T09:15:38.904Z,72.36
2018-12-09T09:18:07.534Z,72.61
2018-12-09T09:20:37.431Z,72.72
2018-12-09T09:23:07.548Z,72.88
2018-12-09T09:25:37.503Z,74.00
2018-12-09T09:28:05.963Z,73.81
2018-12-09T09:30:35.088Z,74.71
2018-12-09T09:33:04.622Z,75.67
2018-12-09T09:35:36.504Z,75.81
2018-12-09T09:38:05.075Z,75.93
2018-12-09T09:40:35.035Z,75.87
2018-12-09T09:43:04.975Z,75.51
2018-12-09T09:45:34.043Z,74.95
2018-12-09T09:48:04.684Z,74.99
2018-12-09T09:50:34.763Z,75.25
2018-12-09T09:53:05.068Z,75.52
2018-12-09T09:55:34.961Z,75.97
2018-12-09T09:58:04.628Z,75.79
2018-12-09T10:00:35.077Z,75.46
2018-12-09T10:03:05.187Z,75.83
2018-12-09T10:05:34.785Z,76.66
2018-12-09T10:08:18.591Z,75.61
2018-12-09T10:10:50.238Z,77.33
2018-12-09T10:13:21.241Z,76.48
2018-12-09T10:15:50.346Z,77.42
2018-12-09T10:18:19.149Z,77.49
2018-12-09T10:20:48.921Z,77.00
2018-12-09T10:23:20.511Z,77.85
2018-12-09T10:25:49.128Z,79.22
2018-12-09T10:28:22.011Z,79.01
2018-12-09T10:30:51.489Z,79.17
2018-12-09T10:33:23.775Z,78.98
2018-12-09T10:35:52.538Z,79.81
2018-12-09T10:38:22.531Z,79.86
2018-12-09T10:40:52.310Z,81.65
2018-12-09T10:43:23.494Z,81.28
2018-12-09T10:45:53.728Z,80.69
2018-12-09T10:48:23.939Z,80.51
2018-12-09T10:50:53.637Z,80.69
2018-12-09T10:53:23.188Z,80.96
2018-12-09T10:55:53.530Z,80.99
2018-12-09T10:58:22.788Z,80.49
2018-12-09T11:00:58.946Z,80.58
2018-12-09T11:03:28.187Z,80.96
2018-12-09T11:05:59.087Z,80.98
2018-12-09T11:08:30.185Z,80.17
2018-12-09T11:11:01.767Z,80.57
2018-12-09T11:13:31.319Z,79.65
2018-12-09T11:16:00.805Z,78.86
2018-12-09T11:18:32.267Z,79.64
2018-12-09T11:21:00.923Z,78.95
2018-12-09T11:23:30.591Z,78.92
2018-12-09T11:26:00.992Z,79.26
2018-12-09T11:28:29.534Z,79.21
2018-12-09T11:30:58.857Z,79.22
2018-12-09T11:33:28.659Z,78.99
2018-12-09T11:35:59.043Z,78.22
2018-12-09T11:38:28.338Z,77.74
2018-12-09T11:40:58.991Z,77.24
2018-12-09T11:43:28.080Z,77.03
2018-12-09T11:45:57.534Z,76.54
2018-12-09T11:48:26.039Z,75.29
2018-12-09T11:50:57.068Z,77.04
2018-12-09T11:53:29.367Z,77.03
2018-12-09T11:55:57.871Z,77.60
2018-12-09T11:58:26.798Z,76.63
2018-12-09T12:01:02.309Z,76.26
2018-12-09T12:03:31.941Z,75.98
2018-12-09T12:06:01.542Z,75.32
2018-12-09T12:08:32.146Z,75.37
2018-12-09T12:11:01.171Z,75.44
2018-12-09T12:13:31.712Z,75.89
2018-12-09T12:16:02.347Z,77.25
2018-12-09T12:18:31.417Z,76.96
2018-12-09T12:21:01.067Z,78.32
2018-12-09T12:23:31.047Z,77.14
2018-12-09T12:26:01.563Z,76.97
2018-12-09T12:28:31.566Z,77.20
2018-12-09T12:31:00.185Z,76.85
2018-12-09T12:33:28.940Z,77.62
2018-12-09T12:35:58.514Z,77.47
2018-12-09T12:38:28.891Z,76.94
2018-12-09T12:40:58.858Z,77.34
2018-12-09T12:43:28.489Z,77.63
2018-12-09T12:45:57.975Z,77.99
2018-12-09T12:48:26.514Z,79.25
2018-12-09T12:50:56.209Z,79.64
2018-12-09T12:53:25.610Z,81.24
2018-12-09T12:55:54.881Z,80.77
2018-12-09T12:58:24.732Z,81.21
2018-12-09T13:00:53.378Z,80.75
2018-12-09T13:03:22.917Z,81.63
2018-12-09T13:05:54.957Z,81.43
2018-12-09T13:08:28.965Z,81.52
2018-12-09T13:10:58.723Z,82.38
2018-12-09T13:13:27.799Z,81.55
2018-12-09T13:15:58.127Z,81.82
2018-12-09T13:18:27.010Z,81.39
2018-12-09T13:20:56.577Z,81.48
2018-12-09T13:23:27.624Z,81.70
2018-12-09T13:25:57.045Z,81.16
2018-12-09T13:28:26.120Z,81.28
2018-12-09T13:30:59.027Z,81.43
2018-12-09T13:33:27.665Z,81.34
2018-12-09T13:35:57.676Z,81.93
2018-12-09T13:38:27.239Z,81.62
2018-12-09T13:40:57.745Z,81.96
2018-12-09T13:43:27.319Z,82.76
2018-12-09T13:45:55.934Z,83.10
2018-12-09T13:48:26.115Z,82.99
2018-12-09T13:50:57.933Z,82.35
2018-12-09T13:53:29.887Z,82.82
2018-12-09T13:55:58.733Z,83.89
2018-12-09T13:58:29.490Z,83.57
2018-12-09T14:01:06.347Z,83.17
2018-12-09T14:03:35.450Z,83.39
2018-12-09T14:06:04.051Z,83.29
2018-12-09T14:08:34.435Z,82.76
2018-12-09T14:11:03.808Z,83.01
2018-12-09T14:13:35.134Z,81.37
2018-12-09T14:16:03.616Z,82.14
2018-12-09T14:18:33.698Z,82.32
2018-12-09T14:21:02.549Z,80.98
2018-12-09T14:23:32.353Z,81.10
2018-12-09T14:26:01.038Z,81.22
2018-12-09T14:28:30.549Z,81.89
2018-12-09T14:31:00.415Z,79.91
2018-12-09T14:33:29.661Z,81.13
2018-12-09T14:35:59.439Z,81.59
2018-12-09T14:38:29.246Z,80.52
2018-12-09T14:40:57.934Z,80.31
2018-12-09T14:43:28.863Z,81.73
2018-12-09T14:45:57.552Z,82.26
2018-12-09T14:48:26.970Z,83.57
2018-12-09T14:50:56.583Z,83.69
2018-12-09T14:53:27.827Z,83.06
2018-12-09T14:55:56.741Z,84.95
2018-12-09T14:58:27.850Z,85.48
2018-12-09T15:01:02.326Z,85.64
2018-12-09T15:03:31.746Z,86.32
2018-12-09T15:06:02.610Z,84.38
2018-12-09T15:08:35.494Z,84.91
2018-12-09T15:11:10.966Z,85.29
2018-12-09T15:13:41.048Z,85.19
2018-12-09T15:16:11.641Z,85.39
2018-12-09T15:18:40.173Z,84.16
2018-12-09T15:21:10.785Z,85.21
2018-12-09T15:23:39.327Z,84.63
2018-12-09T15:26:08.009Z,84.67
2018-12-09T15:28:37.055Z,84.59
2018-12-09T15:31:08.598Z,83.91
2018-12-09T15:33:37.683Z,84.27
2018-12-09T15:36:07.624Z,84.42
2018-12-09T15:38:38.310Z,84.35
2018-12-09T15:41:07.258Z,84.82
2018-12-09T15:43:40.196Z,85.04
2018-12-09T15:46:10.002Z,84.52
2018-12-09T15:48:41.708Z,85.35
2018-12-09T15:51:13.194Z,85.25
2018-12-09T15:53:42.556Z,85.38
2018-12-09T15:56:11.925Z,85.35
2018-12-09T15:58:40.444Z,85.13
2018-12-09T16:01:11.329Z,85.59
2018-12-09T16:03:40.238Z,85.21
2018-12-09T16:06:08.891Z,85.45
2018-12-09T16:08:38.662Z,84.23
2018-12-09T16:11:07.510Z,84.55
2018-12-09T16:13:36.293Z,83.97
2018-12-09T16:16:05.199Z,84.71
2018-12-09T16:18:34.242Z,84.43
2018-12-09T16:21:04.736Z,83.82
2018-12-09T16:23:37.401Z,84.46
2018-12-09T16:26:07.902Z,83.99
2018-12-09T16:28:36.714Z,83.42
2018-12-09T16:33:42.565Z,84.58
2018-12-09T16:36:11.083Z,83.55
2018-12-09T16:38:40.411Z,84.19
2018-12-09T16:41:09.175Z,83.76
2018-12-09T16:43:38.871Z,82.32
2018-12-09T16:46:08.330Z,82.44
2018-12-09T16:48:37.691Z,82.83
2018-12-09T16:51:07.965Z,81.47
2018-12-09T16:53:37.897Z,81.73
2018-12-09T16:56:07.080Z,81.46
2018-12-09T16:58:35.886Z,81.81
2018-12-09T17:01:05.337Z,83.12
2018-12-09T17:03:35.813Z,82.77
2018-12-09T17:06:06.977Z,82.39
2018-12-09T17:08:36.278Z,82.39
2018-12-09T17:11:04.930Z,81.87
2018-12-09T17:13:35.567Z,81.69
2018-12-09T17:16:06.098Z,80.97
2018-12-09T17:18:35.372Z,81.45
2018-12-09T17:21:05.835Z,81.53
2018-12-09T17:23:38.279Z,80.78
2018-12-09T17:26:07.632Z,80.07
2018-12-09T17:28:38.513Z,80.40
2018-12-09T17:31:09.555Z,81.19
2018-12-09T17:33:38.475Z,81.06
2018-12-09T17:36:13.911Z,80.79
2018-12-09T17:38:43.589Z,81.15
2018-12-09T17:41:12.934Z,79.83
2018-12-09T17:43:42.243Z,79.98
2018-12-09T17:46:11.550Z,80.71
2018-12-09T17:48:42.655Z,80.64
2018-12-09T17:51:15.808Z,81.94
2018-12-09T17:53:46.493Z,81.79
2018-12-09T17:56:16.568Z,82.02
2018-12-09T17:58:45.654Z,81.71
2018-12-09T18:01:17.164Z,82.19
2018-12-09T18:03:48.158Z,81.52
2018-12-09T18:06:17.447Z,80.25
2018-12-09T18:08:47.801Z,80.86
2018-12-09T18:11:19.372Z,80.99
2018-12-09T18:13:49.740Z,80.57
2018-12-09T18:16:18.491Z,80.64
2018-12-09T18:18:49.037Z,81.10
2018-12-09T18:21:17.874Z,82.50
2018-12-09T18:23:47.253Z,83.53
2018-12-09T18:26:17.851Z,84.28
2018-12-09T18:28:47.830Z,83.00
2018-12-09T18:31:17.918Z,84.00
2018-12-09T18:33:48.002Z,83.12
2018-12-09T18:36:18.567Z,82.35
2018-12-09T18:38:47.154Z,82.00
2018-12-09T18:41:16.706Z,83.45
2018-12-09T18:43:47.201Z,85.31
2018-12-09T18:46:17.258Z,84.92
2018-12-09T18:48:47.553Z,83.74
2018-12-09T18:51:18.557Z,82.93
2018-12-09T18:53:48.478Z,83.79
2018-12-09T18:56:20.287Z,82.80
2018-12-09T18:58:48.848Z,82.37
2018-12-09T19:01:19.832Z,83.46
2018-12-09T19:03:48.649Z,81.65
2018-12-09T19:06:18.283Z,83.51
2018-12-09T19:08:49.013Z,84.26
2018-12-09T19:11:18.017Z,84.02
2018-12-09T19:13:47.148Z,82.90
2018-12-09T19:16:19.499Z,83.14
2018-12-09T19:18:48.540Z,83.35
2018-12-09T19:21:18.669Z,83.05
2018-12-09T19:23:47.306Z,82.43
2018-12-09T19:26:16.860Z,82.91
2018-12-09T19:28:48.350Z,82.87
2018-12-09T19:31:18.966Z,82.62
2018-12-09T19:33:48.323Z,82.02
2018-12-09T19:36:17.507Z,81.44
2018-12-09T19:38:46.774Z,81.87
2018-12-09T19:41:17.463Z,80.71
2018-12-09T19:43:47.178Z,81.48
2018-12-09T19:46:19.701Z,81.75
2018-12-09T19:48:48.294Z,80.34
2018-12-09T19:51:17.350Z,79.23
2018-12-09T19:53:48.313Z,79.73
2018-12-09T19:56:17.910Z,80.18
2018-12-09T19:58:47.625Z,77.55
2018-12-09T20:01:16.701Z,78.85
2018-12-09T20:03:45.748Z,78.95
2018-12-09T20:06:16.315Z,78.66
2018-12-09T20:08:45.208Z,78.12
2018-12-09T20:11:14.506Z,78.00
2018-12-09T20:13:45.571Z,77.59
2018-12-09T20:16:16.449Z,78.87
2018-12-09T20:18:45.555Z,79.26
2018-12-09T20:21:15.206Z,79.68
2018-12-09T20:23:44.799Z,79.36
2018-12-09T20:26:15.260Z,79.22
2018-12-09T20:28:45.030Z,78.95
2018-12-09T20:31:13.895Z,78.76
2018-12-09T20:33:44.039Z,79.32
2018-12-09T20:36:14.166Z,78.92
2018-12-09T20:38:45.400Z,79.86
2018-12-09T20:41:16.548Z,79.37
2018-12-09T20:43:45.166Z,79.76
2018-12-09T20:46:16.269Z,78.61
2018-12-09T20:48:45.934Z,79.25
2018-12-09T20:51:16.310Z,78.44
2018-12-09T20:53:44.920Z,78.30
2018-12-09T20:56:14.156Z,77.80
2018-12-09T20:58:44.590Z,77.74
2018-12-09T21:01:14.895Z,77.05
2018-12-09T21:03:48.872Z,77.93
2018-12-09T21:06:17.888Z,77.68
2018-12-09T21:08:47.923Z,77.87
2018-12-09T21:11:17.287Z,77.40
2018-12-09T21:13:46.061Z,77.91
2018-12-09T21:16:16.393Z,78.20
2018-12-09T21:18:44.969Z,78.70
2018-12-09T21:21:14.224Z,79.10
2018-12-09T21:23:44.165Z,80.02
2018-12-09T21:26:15.193Z,79.89
2018-12-09T21:28:45.315Z,79.72
2018-12-09T21:31:15.160Z,78.03
2018-12-09T21:33:44.434Z,78.69
2018-12-09T21:36:21.342Z,78.92
2018-12-09T21:38:52.154Z,77.64
2018-12-09T21:41:21.518Z,77.98
2018-12-09T21:43:51.588Z,77.67
2018-12-09T21:46:24.714Z,76.97
2018-12-09T21:48:54.626Z,78.44
2018-12-09T21:51:24.190Z,77.15
2018-12-09T21:53:53.965Z,78.38
2018-12-09T21:56:23.427Z,80.42
2018-12-09T21:58:53.522Z,80.17
2018-12-09T22:01:23.223Z,79.86
2018-12-09T22:03:53.147Z,78.55
2018-12-09T22:06:24.978Z,79.83
2018-12-09T22:08:54.193Z,79.42
2018-12-09T22:11:23.164Z,78.58
2018-12-09T22:13:52.334Z,78.71
2018-12-09T22:16:24.298Z,78.25
2018-12-09T22:18:54.937Z,79.70
2018-12-09T22:21:24.610Z,79.92
2018-12-09T22:23:53.738Z,80.36
2018-12-09T22:26:24.069Z,79.33
2018-12-09T22:28:53.366Z,79.18
2018-12-09T22:31:23.738Z,78.89
2018-12-09T22:33:53.949Z,80.15
2018-12-09T22:36:26.918Z,79.87
2018-12-09T22:38:55.999Z,78.47
2018-12-09T22:41:25.417Z,79.77
2018-12-09T22:43:54.749Z,79.17
2018-12-09T22:46:24.237Z,77.61
2018-12-09T22:48:54.042Z,76.04
2018-12-09T22:51:23.179Z,77.26
2018-12-09T22:53:55.768Z,77.17
2018-12-09T22:56:26.010Z,78.46
2018-12-09T22:58:56.815Z,78.42
2018-12-09T23:01:25.961Z,78.42
2018-12-09T23:03:55.539Z,78.15
2018-12-09T23:06:25.670Z,78.15
2018-12-09T23:08:55.159Z,77.93
2018-12-09T23:11:24.647Z,77.70
2018-12-09T23:13:53.776Z,76.50
2018-12-09T23:16:23.299Z,77.63
2018-12-09T23:18:54.849Z,77.02
2018-12-09T23:21:24.499Z,77.72
2018-12-09T23:23:54.150Z,76.42
2018-12-09T23:26:25.019Z,76.71
2018-12-09T23:28:55.050Z,77.33
2018-12-09T23:31:23.884Z,76.65
2018-12-09T23:33:53.190Z,76.24
2018-12-09T23:36:23.374Z,76.92
2018-12-09T23:38:53.534Z,76.90
2018-12-09T23:41:23.662Z,75.49
2018-12-09T23:43:52.646Z,74.61
2018-12-09T23:46:21.742Z,76.64
2018-12-09T23:48:51.478Z,76.34
2018-12-09T23:51:20.925Z,75.97
2018-12-09T23:53:54.607Z,75.86
2018-12-09T23:56:23.974Z,76.20
2018-12-09T23:58:52.775Z,76.67
